sensor_id;sensor_type;location;lat;lon;timestamp;P1;durP1;ratioP1;P2;durP2;ratioP2
34471;SDS011;20710;49.976;19.836;2023-07-20T00:00:11;5.30;;;3.70;;
34471;SDS011;20710;49.976;19.836;2023-07-20T00:06:35;5.40;;;4.20;;
34471;SDS011;20710;49.976;19.836;2023-07-20T00:12:41;7.90;;;4.00;;
34471;SDS011;20710;49.976;19.836;2023-07-20T00:18:48;7.10;;;3.40;;
34471;SDS011;20710;49.976;19.836;2023-07-20T00:24:50;4.80;;;3.40;;
34471;SDS011;20710;49.976;19.836;2023-07-20T00:30:53;5.10;;;3.30;;
34471;SDS011;20710;49.976;19.836;2023-07-20T00:36:54;6.10;;;3.40;;
34471;SDS011;20710;49.976;19.836;2023-07-20T00:43:04;6.00;;;3.40;;
34471;SDS011;20710;49.976;19.836;2023-07-20T00:49:07;4.60;;;3.20;;
34471;SDS011;20710;49.976;19.836;2023-07-20T00:55:08;8.20;;;3.30;;
34471;SDS011;20710;49.976;19.836;2023-07-20T01:01:10;7.30;;;3.40;;
34471;SDS011;20710;49.976;19.836;2023-07-20T01:07:34;5.20;;;4.00;;
34471;SDS011;20710;49.976;19.836;2023-07-20T01:14:09;6.10;;;4.10;;
34471;SDS011;20710;49.976;19.836;2023-07-20T01:20:24;7.90;;;4.10;;
34471;SDS011;20710;49.976;19.836;2023-07-20T01:33:21;10.50;;;6.00;;
34471;SDS011;20710;49.976;19.836;2023-07-20T01:39:23;11.10;;;6.20;;
34471;SDS011;20710;49.976;19.836;2023-07-20T01:45:25;9.80;;;5.60;;
34471;SDS011;20710;49.976;19.836;2023-07-20T01:51:27;14.40;;;6.50;;
34471;SDS011;20710;49.976;19.836;2023-07-20T01:57:28;17.60;;;7.80;;
34471;SDS011;20710;49.976;19.836;2023-07-20T02:03:30;12.50;;;6.90;;
34471;SDS011;20710;49.976;19.836;2023-07-20T02:09:42;11.50;;;6.30;;
34471;SDS011;20710;49.976;19.836;2023-07-20T02:15:44;9.10;;;5.90;;
34471;SDS011;20710;49.976;19.836;2023-07-20T02:22:02;9.80;;;5.90;;
34471;SDS011;20710;49.976;19.836;2023-07-20T02:28:04;9.90;;;6.30;;
34471;SDS011;20710;49.976;19.836;2023-07-20T02:34:06;11.60;;;6.60;;
34471;SDS011;20710;49.976;19.836;2023-07-20T02:40:08;13.40;;;7.70;;
34471;SDS011;20710;49.976;19.836;2023-07-20T02:46:10;14.10;;;7.00;;
34471;SDS011;20710;49.976;19.836;2023-07-20T02:52:12;15.70;;;6.70;;
34471;SDS011;20710;49.976;19.836;2023-07-20T02:58:14;12.20;;;5.80;;
34471;SDS011;20710;49.976;19.836;2023-07-20T03:04:16;10.50;;;6.10;;
34471;SDS011;20710;49.976;19.836;2023-07-20T03:10:39;8.80;;;5.40;;
34471;SDS011;20710;49.976;19.836;2023-07-20T03:16:50;12.80;;;6.60;;
34471;SDS011;20710;49.976;19.836;2023-07-20T03:22:52;12.10;;;5.80;;
34471;SDS011;20710;49.976;19.836;2023-07-20T03:28:55;13.00;;;6.20;;
34471;SDS011;20710;49.976;19.836;2023-07-20T03:35:00;11.20;;;5.60;;
34471;SDS011;20710;49.976;19.836;2023-07-20T03:41:02;8.80;;;5.80;;
34471;SDS011;20710;49.976;19.836;2023-07-20T03:47:04;10.70;;;4.90;;
34471;SDS011;20710;49.976;19.836;2023-07-20T03:53:07;12.00;;;4.80;;
34471;SDS011;20710;49.976;19.836;2023-07-20T03:59:08;7.70;;;4.10;;
34471;SDS011;20710;49.976;19.836;2023-07-20T04:05:10;9.70;;;5.00;;
34471;SDS011;20710;49.976;19.836;2023-07-20T04:11:12;14.10;;;4.70;;
34471;SDS011;20710;49.976;19.836;2023-07-20T04:17:15;8.50;;;3.80;;
34471;SDS011;20710;49.976;19.836;2023-07-20T04:23:17;10.40;;;4.20;;
34471;SDS011;20710;49.976;19.836;2023-07-20T04:29:18;11.20;;;4.40;;
34471;SDS011;20710;49.976;19.836;2023-07-20T04:35:48;9.50;;;4.00;;
34471;SDS011;20710;49.976;19.836;2023-07-20T04:42:18;9.70;;;4.20;;
34471;SDS011;20710;49.976;19.836;2023-07-20T04:48:22;10.60;;;4.50;;
34471;SDS011;20710;49.976;19.836;2023-07-20T04:54:36;9.90;;;4.40;;
34471;SDS011;20710;49.976;19.836;2023-07-20T05:00:59;7.70;;;3.80;;
34471;SDS011;20710;49.976;19.836;2023-07-20T05:07:01;10.60;;;3.80;;
34471;SDS011;20710;49.976;19.836;2023-07-20T05:13:02;6.70;;;4.10;;
34471;SDS011;20710;49.976;19.836;2023-07-20T05:19:04;8.70;;;4.10;;
34471;SDS011;20710;49.976;19.836;2023-07-20T05:25:26;7.80;;;3.80;;
34471;SDS011;20710;49.976;19.836;2023-07-20T05:31:28;8.90;;;4.50;;
34471;SDS011;20710;49.976;19.836;2023-07-20T05:37:40;7.60;;;4.20;;
34471;SDS011;20710;49.976;19.836;2023-07-20T05:43:41;8.50;;;3.80;;
34471;SDS011;20710;49.976;19.836;2023-07-20T05:49:44;6.70;;;3.90;;
34471;SDS011;20710;49.976;19.836;2023-07-20T05:56:01;5.90;;;4.10;;
34471;SDS011;20710;49.976;19.836;2023-07-20T06:02:16;4.50;;;3.20;;
34471;SDS011;20710;49.976;19.836;2023-07-20T06:08:18;9.10;;;4.10;;
34471;SDS011;20710;49.976;19.836;2023-07-20T06:14:19;5.80;;;3.40;;
34471;SDS011;20710;49.976;19.836;2023-07-20T06:20:21;6.40;;;3.40;;
34471;SDS011;20710;49.976;19.836;2023-07-20T06:26:41;9.20;;;4.10;;
34471;SDS011;20710;49.976;19.836;2023-07-20T06:32:43;10.20;;;4.00;;
34471;SDS011;20710;49.976;19.836;2023-07-20T06:38:45;8.10;;;4.10;;
34471;SDS011;20710;49.976;19.836;2023-07-20T06:44:47;14.00;;;4.70;;
34471;SDS011;20710;49.976;19.836;2023-07-20T06:50:49;10.70;;;4.90;;
34471;SDS011;20710;49.976;19.836;2023-07-20T06:56:51;6.50;;;3.30;;
34471;SDS011;20710;49.976;19.836;2023-07-20T07:02:53;6.10;;;3.40;;
34471;SDS011;20710;49.976;19.836;2023-07-20T07:08:56;5.80;;;2.90;;
34471;SDS011;20710;49.976;19.836;2023-07-20T07:14:57;6.40;;;2.90;;
34471;SDS011;20710;49.976;19.836;2023-07-20T07:21:00;6.00;;;2.60;;
34471;SDS011;20710;49.976;19.836;2023-07-20T07:27:02;6.60;;;2.70;;
34471;SDS011;20710;49.976;19.836;2023-07-20T07:33:05;5.90;;;3.00;;
34471;SDS011;20710;49.976;19.836;2023-07-20T07:39:07;5.60;;;3.10;;
34471;SDS011;20710;49.976;19.836;2023-07-20T07:45:08;4.80;;;2.80;;
34471;SDS011;20710;49.976;19.836;2023-07-20T07:51:10;9.10;;;2.80;;
34471;SDS011;20710;49.976;19.836;2023-07-20T07:57:15;4.60;;;2.60;;
34471;SDS011;20710;49.976;19.836;2023-07-20T08:03:17;6.40;;;2.60;;
34471;SDS011;20710;49.976;19.836;2023-07-20T08:09:20;5.50;;;2.90;;
34471;SDS011;20710;49.976;19.836;2023-07-20T08:15:22;4.90;;;2.70;;
34471;SDS011;20710;49.976;19.836;2023-07-20T08:21:24;4.90;;;2.30;;
34471;SDS011;20710;49.976;19.836;2023-07-20T08:27:26;4.20;;;2.20;;
34471;SDS011;20710;49.976;19.836;2023-07-20T08:33:27;4.90;;;2.40;;
34471;SDS011;20710;49.976;19.836;2023-07-20T08:39:49;4.40;;;1.90;;
34471;SDS011;20710;49.976;19.836;2023-07-20T08:45:50;4.90;;;1.70;;
34471;SDS011;20710;49.976;19.836;2023-07-20T08:51:53;5.30;;;1.90;;
34471;SDS011;20710;49.976;19.836;2023-07-20T08:57:56;3.50;;;1.90;;
34471;SDS011;20710;49.976;19.836;2023-07-20T09:04:00;3.80;;;2.00;;
34471;SDS011;20710;49.976;19.836;2023-07-20T09:10:03;5.70;;;2.30;;
34471;SDS011;20710;49.976;19.836;2023-07-20T09:16:08;2.80;;;1.90;;
34471;SDS011;20710;49.976;19.836;2023-07-20T09:22:10;2.80;;;1.80;;
34471;SDS011;20710;49.976;19.836;2023-07-20T09:28:12;4.10;;;1.90;;
34471;SDS011;20710;49.976;19.836;2023-07-20T09:34:17;9.00;;;2.30;;
34471;SDS011;20710;49.976;19.836;2023-07-20T09:40:19;3.60;;;1.40;;
34471;SDS011;20710;49.976;19.836;2023-07-20T09:46:22;4.10;;;1.60;;
34471;SDS011;20710;49.976;19.836;2023-07-20T09:52:44;2.50;;;1.50;;
34471;SDS011;20710;49.976;19.836;2023-07-20T09:58:46;3.60;;;1.60;;
34471;SDS011;20710;49.976;19.836;2023-07-20T10:04:54;3.60;;;1.80;;
34471;SDS011;20710;49.976;19.836;2023-07-20T10:10:59;2.50;;;1.60;;
34471;SDS011;20710;49.976;19.836;2023-07-20T10:17:25;2.60;;;1.50;;
34471;SDS011;20710;49.976;19.836;2023-07-20T10:23:28;4.20;;;1.40;;
34471;SDS011;20710;49.976;19.836;2023-07-20T10:29:30;1.80;;;1.40;;
34471;SDS011;20710;49.976;19.836;2023-07-20T10:42:01;2.90;;;1.20;;
34471;SDS011;20710;49.976;19.836;2023-07-20T10:48:05;2.80;;;1.50;;
34471;SDS011;20710;49.976;19.836;2023-07-20T10:54:53;2.40;;;1.40;;
34471;SDS011;20710;49.976;19.836;2023-07-20T11:00:30;2.70;;;1.40;;
34471;SDS011;20710;49.976;19.836;2023-07-20T11:06:32;4.40;;;1.60;;
34471;SDS011;20710;49.976;19.836;2023-07-20T11:12:38;4.00;;;1.80;;
34471;SDS011;20710;49.976;19.836;2023-07-20T11:18:40;3.30;;;1.80;;
34471;SDS011;20710;49.976;19.836;2023-07-20T11:24:42;2.60;;;1.70;;
34471;SDS011;20710;49.976;19.836;2023-07-20T11:30:44;2.10;;;1.60;;
34471;SDS011;20710;49.976;19.836;2023-07-20T11:36:46;4.40;;;1.70;;
34471;SDS011;20710;49.976;19.836;2023-07-20T11:42:59;2.80;;;1.50;;
34471;SDS011;20710;49.976;19.836;2023-07-20T11:49:00;5.10;;;2.20;;
34471;SDS011;20710;49.976;19.836;2023-07-20T11:55:03;5.40;;;2.10;;
34471;SDS011;20710;49.976;19.836;2023-07-20T12:01:05;3.30;;;2.00;;
34471;SDS011;20710;49.976;19.836;2023-07-20T12:07:07;3.80;;;1.80;;
34471;SDS011;20710;49.976;19.836;2023-07-20T12:13:10;4.10;;;1.70;;
34471;SDS011;20710;49.976;19.836;2023-07-20T12:19:15;4.50;;;2.00;;
34471;SDS011;20710;49.976;19.836;2023-07-20T12:25:17;3.70;;;2.00;;
34471;SDS011;20710;49.976;19.836;2023-07-20T12:31:21;3.10;;;2.10;;
34471;SDS011;20710;49.976;19.836;2023-07-20T12:37:44;2.90;;;2.10;;
34471;SDS011;20710;49.976;19.836;2023-07-20T12:43:46;4.30;;;2.40;;
34471;SDS011;20710;49.976;19.836;2023-07-20T12:49:48;6.90;;;3.10;;
34471;SDS011;20710;49.976;19.836;2023-07-20T12:55:50;3.90;;;2.50;;
34471;SDS011;20710;49.976;19.836;2023-07-20T13:01:52;4.40;;;2.50;;
34471;SDS011;20710;49.976;19.836;2023-07-20T13:07:53;5.80;;;3.20;;
34471;SDS011;20710;49.976;19.836;2023-07-20T13:13:57;7.60;;;2.10;;
34471;SDS011;20710;49.976;19.836;2023-07-20T13:19:58;3.50;;;2.50;;
34471;SDS011;20710;49.976;19.836;2023-07-20T13:26:01;4.50;;;2.40;;
34471;SDS011;20710;49.976;19.836;2023-07-20T13:32:03;6.90;;;2.10;;
34471;SDS011;20710;49.976;19.836;2023-07-20T13:38:08;4.70;;;2.70;;
34471;SDS011;20710;49.976;19.836;2023-07-20T13:44:11;4.10;;;2.10;;
34471;SDS011;20710;49.976;19.836;2023-07-20T13:50:13;6.50;;;2.40;;
34471;SDS011;20710;49.976;19.836;2023-07-20T13:56:14;4.00;;;2.00;;
34471;SDS011;20710;49.976;19.836;2023-07-20T14:02:16;4.30;;;2.10;;
34471;SDS011;20710;49.976;19.836;2023-07-20T14:08:18;3.30;;;2.00;;
34471;SDS011;20710;49.976;19.836;2023-07-20T14:14:19;2.20;;;1.50;;
34471;SDS011;20710;49.976;19.836;2023-07-20T14:20:21;3.60;;;1.50;;
34471;SDS011;20710;49.976;19.836;2023-07-20T14:26:23;2.30;;;1.70;;
34471;SDS011;20710;49.976;19.836;2023-07-20T14:32:25;2.10;;;1.40;;
34471;SDS011;20710;49.976;19.836;2023-07-20T14:38:27;2.70;;;1.60;;
34471;SDS011;20710;49.976;19.836;2023-07-20T14:44:32;5.80;;;1.80;;
34471;SDS011;20710;49.976;19.836;2023-07-20T14:50:34;4.20;;;2.10;;
34471;SDS011;20710;49.976;19.836;2023-07-20T14:56:37;3.20;;;2.10;;
34471;SDS011;20710;49.976;19.836;2023-07-20T15:02:40;4.20;;;1.90;;
34471;SDS011;20710;49.976;19.836;2023-07-20T15:08:42;4.20;;;2.20;;
34471;SDS011;20710;49.976;19.836;2023-07-20T15:14:44;7.80;;;2.40;;
34471;SDS011;20710;49.976;19.836;2023-07-20T15:21:12;4.10;;;1.80;;
34471;SDS011;20710;49.976;19.836;2023-07-20T15:27:14;4.70;;;1.90;;
34471;SDS011;20710;49.976;19.836;2023-07-20T15:33:16;7.50;;;1.80;;
34471;SDS011;20710;49.976;19.836;2023-07-20T15:39:18;7.60;;;1.60;;
34471;SDS011;20710;49.976;19.836;2023-07-20T15:45:20;4.80;;;2.60;;
34471;SDS011;20710;49.976;19.836;2023-07-20T15:51:23;6.30;;;2.50;;
34471;SDS011;20710;49.976;19.836;2023-07-20T15:57:25;3.30;;;1.90;;
34471;SDS011;20710;49.976;19.836;2023-07-20T16:03:26;2.80;;;1.60;;
34471;SDS011;20710;49.976;19.836;2023-07-20T16:09:27;3.20;;;1.20;;
34471;SDS011;20710;49.976;19.836;2023-07-20T16:15:29;2.60;;;1.20;;
34471;SDS011;20710;49.976;19.836;2023-07-20T16:21:31;1.90;;;1.40;;
34471;SDS011;20710;49.976;19.836;2023-07-20T16:27:33;3.10;;;1.50;;
34471;SDS011;20710;49.976;19.836;2023-07-20T16:39:42;4.70;;;1.00;;
34471;SDS011;20710;49.976;19.836;2023-07-20T16:45:48;5.00;;;1.30;;
34471;SDS011;20710;49.976;19.836;2023-07-20T16:51:50;2.60;;;1.50;;
34471;SDS011;20710;49.976;19.836;2023-07-20T16:58:12;2.50;;;1.70;;
34471;SDS011;20710;49.976;19.836;2023-07-20T17:04:15;2.20;;;1.60;;
34471;SDS011;20710;49.976;19.836;2023-07-20T17:10:17;4.00;;;2.00;;
34471;SDS011;20710;49.976;19.836;2023-07-20T17:16:19;2.70;;;1.60;;
34471;SDS011;20710;49.976;19.836;2023-07-20T17:22:20;2.80;;;1.80;;
34471;SDS011;20710;49.976;19.836;2023-07-20T17:28:22;6.20;;;2.00;;
34471;SDS011;20710;49.976;19.836;2023-07-20T17:34:24;3.40;;;1.80;;
34471;SDS011;20710;49.976;19.836;2023-07-20T17:40:26;4.70;;;2.20;;
34471;SDS011;20710;49.976;19.836;2023-07-20T17:46:28;5.90;;;2.20;;
34471;SDS011;20710;49.976;19.836;2023-07-20T17:52:51;4.50;;;2.40;;
34471;SDS011;20710;49.976;19.836;2023-07-20T17:59:13;6.80;;;2.30;;
34471;SDS011;20710;49.976;19.836;2023-07-20T18:05:14;4.60;;;2.60;;
34471;SDS011;20710;49.976;19.836;2023-07-20T18:11:18;2.80;;;2.10;;
34471;SDS011;20710;49.976;19.836;2023-07-20T18:17:20;4.60;;;2.50;;
34471;SDS011;20710;49.976;19.836;2023-07-20T18:23:22;4.60;;;2.90;;
34471;SDS011;20710;49.976;19.836;2023-07-20T18:29:24;4.20;;;2.70;;
34471;SDS011;20710;49.976;19.836;2023-07-20T18:35:26;4.70;;;2.70;;
34471;SDS011;20710;49.976;19.836;2023-07-20T18:41:32;4.20;;;2.90;;
34471;SDS011;20710;49.976;19.836;2023-07-20T18:47:34;4.20;;;3.40;;
34471;SDS011;20710;49.976;19.836;2023-07-20T18:53:38;4.10;;;3.20;;
34471;SDS011;20710;49.976;19.836;2023-07-20T18:59:40;3.10;;;2.80;;
34471;SDS011;20710;49.976;19.836;2023-07-20T19:05:44;4.40;;;2.50;;
34471;SDS011;20710;49.976;19.836;2023-07-20T19:12:05;8.20;;;5.50;;
34471;SDS011;20710;49.976;19.836;2023-07-20T19:18:07;11.50;;;5.20;;
34471;SDS011;20710;49.976;19.836;2023-07-20T19:24:09;9.60;;;5.30;;
34471;SDS011;20710;49.976;19.836;2023-07-20T19:30:11;9.20;;;4.90;;
34471;SDS011;20710;49.976;19.836;2023-07-20T19:36:13;6.10;;;4.50;;
34471;SDS011;20710;49.976;19.836;2023-07-20T19:42:15;5.80;;;4.40;;
34471;SDS011;20710;49.976;19.836;2023-07-20T19:48:16;6.70;;;4.50;;
34471;SDS011;20710;49.976;19.836;2023-07-20T19:54:52;8.60;;;4.60;;
34471;SDS011;20710;49.976;19.836;2023-07-20T20:01:00;5.50;;;3.60;;
34471;SDS011;20710;49.976;19.836;2023-07-20T20:07:02;6.00;;;4.90;;
34471;SDS011;20710;49.976;19.836;2023-07-20T20:13:26;6.30;;;4.40;;
34471;SDS011;20710;49.976;19.836;2023-07-20T20:19:29;5.70;;;4.10;;
34471;SDS011;20710;49.976;19.836;2023-07-20T20:25:30;4.40;;;3.60;;
34471;SDS011;20710;49.976;19.836;2023-07-20T20:31:32;5.20;;;4.00;;
34471;SDS011;20710;49.976;19.836;2023-07-20T20:37:35;5.90;;;4.80;;
34471;SDS011;20710;49.976;19.836;2023-07-20T20:43:37;9.20;;;7.70;;
34471;SDS011;20710;49.976;19.836;2023-07-20T20:49:47;9.30;;;7.80;;
34471;SDS011;20710;49.976;19.836;2023-07-20T20:55:50;9.90;;;8.00;;
34471;SDS011;20710;49.976;19.836;2023-07-20T21:01:52;10.40;;;6.90;;
34471;SDS011;20710;49.976;19.836;2023-07-20T21:07:54;9.10;;;6.20;;
34471;SDS011;20710;49.976;19.836;2023-07-20T21:13:55;7.60;;;6.00;;
34471;SDS011;20710;49.976;19.836;2023-07-20T21:20:15;8.00;;;4.80;;
34471;SDS011;20710;49.976;19.836;2023-07-20T21:26:17;7.10;;;5.10;;
34471;SDS011;20710;49.976;19.836;2023-07-20T21:32:19;6.20;;;4.50;;
34471;SDS011;20710;49.976;19.836;2023-07-20T21:38:20;8.50;;;4.80;;
34471;SDS011;20710;49.976;19.836;2023-07-20T21:44:22;5.50;;;4.60;;
34471;SDS011;20710;49.976;19.836;2023-07-20T21:50:24;7.50;;;4.50;;
34471;SDS011;20710;49.976;19.836;2023-07-20T21:56:40;6.20;;;4.90;;
34471;SDS011;20710;49.976;19.836;2023-07-20T22:03:02;6.10;;;4.40;;
34471;SDS011;20710;49.976;19.836;2023-07-20T22:09:08;7.20;;;4.60;;
34471;SDS011;20710;49.976;19.836;2023-07-20T22:15:30;5.50;;;4.30;;
34471;SDS011;20710;49.976;19.836;2023-07-20T22:21:32;9.40;;;5.40;;
34471;SDS011;20710;49.976;19.836;2023-07-20T22:27:35;10.60;;;5.00;;
34471;SDS011;20710;49.976;19.836;2023-07-20T22:33:56;9.20;;;6.30;;
34471;SDS011;20710;49.976;19.836;2023-07-20T22:40:18;9.30;;;5.30;;
34471;SDS011;20710;49.976;19.836;2023-07-20T22:46:20;6.30;;;5.20;;
34471;SDS011;20710;49.976;19.836;2023-07-20T22:52:42;7.90;;;4.40;;
34471;SDS011;20710;49.976;19.836;2023-07-20T22:58:43;7.40;;;4.90;;
34471;SDS011;20710;49.976;19.836;2023-07-20T23:04:46;5.90;;;4.60;;
34471;SDS011;20710;49.976;19.836;2023-07-20T23:10:49;7.70;;;5.40;;
34471;SDS011;20710;49.976;19.836;2023-07-20T23:17:13;6.60;;;5.00;;
34471;SDS011;20710;49.976;19.836;2023-07-20T23:23:15;7.60;;;4.50;;
34471;SDS011;20710;49.976;19.836;2023-07-20T23:29:17;8.40;;;5.10;;
34471;SDS011;20710;49.976;19.836;2023-07-20T23:35:18;12.90;;;5.70;;
34471;SDS011;20710;49.976;19.836;2023-07-20T23:41:43;9.70;;;4.80;;
34471;SDS011;20710;49.976;19.836;2023-07-20T23:48:01;6.60;;;4.50;;
34471;SDS011;20710;49.976;19.836;2023-07-20T23:55:04;6.70;;;4.90;;
